Time;durP1;ratioP1;P1;durP2;ratioP2;P2;SDS_P1;SDS_P2;PMS_P1;PMS_P2;Temp;Humidity;BMP_temperature;BMP_pressure;BME280_temperature;BME280_humidity;BME280_pressure;Samples;Min_cycle;Max_cycle;Signal;HPM_P1;HPM_P2
2021/11/30 00:01:09;;;;;;;13.23;7.22;;;2.40;96.10;;;;;;5044727;28;20204;-73
2021/11/30 00:03:36;;;;;;;13.75;7.57;;;2.40;96.10;;;;;;5043387;28;20242;-72
2021/11/30 00:06:03;;;;;;;12.27;7.05;;;2.40;95.80;;;;;;5040293;28;20243;-73
2021/11/30 00:08:31;;;;;;;16.25;7.25;;;2.40;95.30;;;;;;5044018;28;20652;-73
2021/11/30 00:10:58;;;;;;;14.40;7.50;;;2.50;95.20;;;;;;5047906;28;20723;-72
2021/11/30 00:13:26;;;;;;;16.85;7.80;;;2.50;95.20;;;;;;5046340;28;20180;-72
2021/11/30 00:15:53;;;;;;;13.40;7.20;;;2.50;95.20;;;;;;5044140;28;20188;-73
2021/11/30 00:18:19;;;;;;;14.35;7.57;;;2.50;95.20;;;;;;5045187;28;20268;-73
2021/11/30 00:20:45;;;;;;;12.02;6.30;;;2.40;95.40;;;;;;5039482;28;20579;-73
2021/11/30 00:23:13;;;;;;;19.83;8.10;;;2.40;95.60;;;;;;5043583;28;20230;-73
2021/11/30 00:25:40;;;;;;;12.38;6.80;;;2.30;95.90;;;;;;5047394;28;20188;-75
2021/11/30 00:28:08;;;;;;;15.50;7.55;;;2.20;96.10;;;;;;5052900;28;20183;-72
2021/11/30 00:30:34;;;;;;;14.18;6.88;;;2.20;96.30;;;;;;5050730;28;20534;-74
2021/11/30 00:33:01;;;;;;;14.15;5.95;;;2.20;96.50;;;;;;5040403;28;20192;-73
2021/11/30 00:35:28;;;;;;;14.50;7.55;;;2.20;96.70;;;;;;5039273;28;20318;-72
2021/11/30 00:37:55;;;;;;;13.23;7.25;;;2.10;96.80;;;;;;5043541;28;20230;-72
2021/11/30 00:40:21;;;;;;;12.27;6.82;;;2.00;97.10;;;;;;5051633;28;20216;-73
2021/11/30 00:42:47;;;;;;;16.33;7.95;;;2.00;97.50;;;;;;5045015;28;20181;-72
2021/11/30 00:45:16;;;;;;;13.40;6.90;;;1.90;97.70;;;;;;5051579;28;20183;-71
2021/11/30 00:47:50;;;;;;;13.00;7.50;;;1.90;97.90;;;;;;5049236;28;20204;-72
2021/11/30 00:50:18;;;;;;;17.42;8.13;;;1.90;98.10;;;;;;5051319;28;20177;-71
2021/11/30 00:52:45;;;;;;;13.88;7.32;;;1.90;98.10;;;;;;5045670;28;20216;-72
2021/11/30 00:55:11;;;;;;;15.15;6.22;;;1.90;98.20;;;;;;5045508;28;20189;-73
2021/11/30 00:57:39;;;;;;;16.20;7.13;;;1.90;98.20;;;;;;5034989;28;20211;-72
2021/11/30 01:00:11;;;;;;;13.15;7.25;;;2.00;98.20;;;;;;5037096;28;21028;-72
2021/11/30 01:02:37;;;;;;;15.18;6.13;;;2.00;98.10;;;;;;5051111;28;20188;-72
2021/11/30 01:05:05;;;;;;;13.30;6.57;;;2.00;97.60;;;;;;5045896;28;20173;-72
2021/11/30 01:07:34;;;;;;;11.95;5.72;;;2.10;97.40;;;;;;5040673;28;20220;-71
2021/11/30 01:10:01;;;;;;;11.38;5.72;;;2.20;97.40;;;;;;5046753;28;20220;-73
2021/11/30 01:12:26;;;;;;;11.07;5.75;;;2.20;97.00;;;;;;5040977;28;20195;-72
2021/11/30 01:14:52;;;;;;;10.10;5.40;;;2.20;96.70;;;;;;5037083;28;20177;-72
2021/11/30 01:17:18;;;;;;;9.77;5.80;;;2.20;96.30;;;;;;5036800;28;20201;-73
2021/11/30 01:19:44;;;;;;;17.30;5.57;;;2.20;96.20;;;;;;5044184;28;20204;-73
2021/11/30 01:22:09;;;;;;;8.43;5.20;;;2.20;95.80;;;;;;5039388;28;21039;-73
2021/11/30 01:24:35;;;;;;;8.90;5.07;;;2.30;95.90;;;;;;5051342;28;20476;-73
2021/11/30 01:27:01;;;;;;;10.87;5.60;;;2.30;95.40;;;;;;5050999;28;20208;-74
2021/11/30 01:29:26;;;;;;;9.83;5.50;;;2.30;95.20;;;;;;5051065;28;20219;-74
2021/11/30 01:31:52;;;;;;;9.40;4.53;;;2.30;95.00;;;;;;5050940;28;20181;-73
2021/11/30 01:34:18;;;;;;;7.27;4.77;;;2.30;94.90;;;;;;5044857;28;20181;-73
2021/11/30 01:36:43;;;;;;;9.30;5.17;;;2.40;95.10;;;;;;5048041;28;20575;-72
2021/11/30 01:39:10;;;;;;;11.20;5.10;;;2.60;95.10;;;;;;5038134;28;20219;-73
2021/11/30 01:41:37;;;;;;;8.57;5.00;;;2.50;94.90;;;;;;5042029;28;20189;-72
2021/11/30 01:44:07;;;;;;;7.20;4.45;;;2.40;94.50;;;;;;5045760;28;20177;-73
2021/11/30 01:49:31;;;;;;;6.20;4.22;;;2.50;94.70;;;;;;5030994;28;20204;-73
2021/11/30 01:51:56;;;;;;;9.15;4.78;;;2.60;94.80;;;;;;5033334;28;20635;-73
2021/11/30 01:54:22;;;;;;;9.77;4.33;;;2.50;94.70;;;;;;5034926;28;20193;-74
2021/11/30 01:56:48;;;;;;;6.23;3.90;;;2.60;94.60;;;;;;5036767;28;20354;-73
2021/11/30 01:59:14;;;;;;;7.37;4.20;;;2.60;94.60;;;;;;5048711;28;20748;-73
2021/11/30 02:01:40;;;;;;;5.57;3.90;;;2.70;94.30;;;;;;5036678;28;20204;-72
2021/11/30 02:04:06;;;;;;;6.40;4.10;;;2.70;93.80;;;;;;5044353;28;20181;-73
2021/11/30 02:06:32;;;;;;;7.15;4.28;;;2.50;93.40;;;;;;5048034;28;20212;-72
2021/11/30 02:08:57;;;;;;;6.40;3.77;;;2.50;93.50;;;;;;5037178;28;20188;-73
2021/11/30 02:11:25;;;;;;;6.47;3.70;;;2.50;93.40;;;;;;5048441;28;20548;-72
2021/11/30 02:13:52;;;;;;;7.07;4.15;;;2.50;93.40;;;;;;5043510;28;20267;-73
2021/11/30 02:16:20;;;;;;;10.38;4.65;;;2.50;93.40;;;;;;5040159;28;20205;-72
2021/11/30 02:18:47;;;;;;;7.35;4.32;;;2.40;93.10;;;;;;5044184;28;20180;-72
2021/11/30 02:21:13;;;;;;;6.57;4.20;;;2.40;93.10;;;;;;5043897;28;20219;-73
2021/11/30 02:26:11;;;;;;;7.57;4.18;;;2.60;92.70;;;;;;5038987;28;20435;-75
2021/11/30 02:28:40;;;;;;;7.50;3.90;;;2.60;92.60;;;;;;5042978;28;20184;-72
2021/11/30 02:31:08;;;;;;;13.90;4.00;;;2.50;92.40;;;;;;5049545;28;20181;-74
2021/11/30 02:33:34;;;;;;;7.47;4.18;;;2.60;92.30;;;;;;5043080;28;20197;-74
2021/11/30 02:36:13;;;;;;;7.80;3.38;;;2.60;92.20;;;;;;5039449;28;20280;-74
2021/11/30 02:38:39;;;;;;;5.78;3.70;;;2.60;92.00;;;;;;5038387;28;20271;-73
2021/11/30 02:41:04;;;;;;;6.63;3.83;;;2.70;92.10;;;;;;5044608;28;20322;-73
2021/11/30 02:43:30;;;;;;;7.90;3.37;;;2.70;91.80;;;;;;5042716;28;20187;-73
2021/11/30 02:45:56;;;;;;;8.13;4.40;;;2.60;91.50;;;;;;5034975;28;20615;-73
2021/11/30 02:48:22;;;;;;;5.10;3.77;;;2.60;91.70;;;;;;5038808;28;20551;-72
2021/11/30 02:50:49;;;;;;;4.33;3.40;;;2.60;91.20;;;;;;5042869;28;20723;-73
2021/11/30 02:53:20;;;;;;;5.28;3.25;;;2.50;91.30;;;;;;5043371;28;20422;-73
2021/11/30 02:55:47;;;;;;;6.60;3.15;;;2.50;91.50;;;;;;5043046;28;20185;-72
2021/11/30 02:58:14;;;;;;;7.35;3.40;;;2.60;91.70;;;;;;5054858;28;20238;-73
2021/11/30 03:00:40;;;;;;;6.10;3.42;;;2.60;91.50;;;;;;5050828;28;20207;-72
2021/11/30 03:03:06;;;;;;;5.20;3.05;;;2.50;91.30;;;;;;5048681;28;20211;-72
2021/11/30 03:05:33;;;;;;;3.90;3.00;;;2.50;91.50;;;;;;5052610;28;20180;-72
2021/11/30 03:07:59;;;;;;;8.67;2.97;;;2.50;91.20;;;;;;5049533;28;20220;-74
2021/11/30 03:10:25;;;;;;;6.57;3.17;;;2.50;91.00;;;;;;5056396;28;20415;-72
2021/11/30 03:12:51;;;;;;;7.28;3.20;;;2.50;91.30;;;;;;5050227;28;20243;-73
2021/11/30 03:15:20;;;;;;;4.95;2.67;;;2.40;91.00;;;;;;5041848;28;20239;-72
2021/11/30 03:17:47;;;;;;;5.05;3.00;;;2.40;91.10;;;;;;5052189;28;20581;-74
2021/11/30 03:20:14;;;;;;;5.40;3.00;;;2.40;91.00;;;;;;5047807;28;20216;-73
2021/11/30 03:22:40;;;;;;;5.53;3.20;;;2.40;91.00;;;;;;5042648;28;20940;-73
2021/11/30 03:25:08;;;;;;;5.40;2.37;;;2.40;90.80;;;;;;5041071;28;20189;-73
2021/11/30 03:27:35;;;;;;;8.70;3.20;;;2.40;90.90;;;;;;5043855;28;20560;-73
2021/11/30 03:30:06;;;;;;;4.90;2.80;;;2.30;90.70;;;;;;5039993;28;20199;-73
2021/11/30 03:35:16;;;;;;;9.77;3.35;;;2.40;90.40;;;;;;5051420;28;20325;-73
2021/11/30 03:37:42;;;;;;;4.00;2.60;;;2.40;90.30;;;;;;5054040;28;20241;-74
2021/11/30 03:40:10;;;;;;;10.97;2.80;;;2.50;90.10;;;;;;5053582;28;20261;-72
2021/11/30 03:42:37;;;;;;;6.47;2.80;;;2.40;89.50;;;;;;5047096;28;20195;-73
2021/11/30 03:45:05;;;;;;;4.50;3.00;;;2.40;89.50;;;;;;5040850;28;20574;-73
2021/11/30 03:47:31;;;;;;;3.55;2.42;;;2.40;89.60;;;;;;5041835;28;20659;-73
2021/11/30 03:49:56;;;;;;;4.10;2.60;;;2.40;89.20;;;;;;5050082;28;20187;-74
2021/11/30 03:52:22;;;;;;;4.30;2.57;;;2.40;89.30;;;;;;5053325;28;20618;-72
2021/11/30 03:54:48;;;;;;;7.87;2.70;;;2.50;89.00;;;;;;5042523;28;20185;-73
2021/11/30 03:57:13;;;;;;;5.67;2.70;;;2.50;89.00;;;;;;5042166;28;20689;-73
2021/11/30 03:59:39;;;;;;;3.13;2.40;;;2.60;88.40;;;;;;5052959;28;20212;-73
2021/11/30 04:02:05;;;;;;;4.13;2.67;;;2.60;88.70;;;;;;5053172;28;20639;-74
2021/11/30 04:04:35;;;;;;;5.77;2.43;;;2.50;88.70;;;;;;5048652;28;20181;-73
2021/11/30 04:07:01;;;;;;;6.38;2.92;;;2.50;88.70;;;;;;5052675;28;20763;-73
2021/11/30 04:09:28;;;;;;;5.25;2.28;;;2.60;88.70;;;;;;5041934;28;20177;-74
2021/11/30 04:11:54;;;;;;;4.97;3.05;;;2.60;88.70;;;;;;5049055;28;20255;-73
2021/11/30 04:14:20;;;;;;;9.20;2.80;;;2.60;88.90;;;;;;5044585;28;20181;-73
2021/11/30 04:16:46;;;;;;;3.70;2.83;;;2.50;89.00;;;;;;5041810;28;20204;-73
2021/11/30 04:19:12;;;;;;;11.40;3.40;;;2.40;89.30;;;;;;5043977;28;20188;-73
2021/11/30 04:21:38;;;;;;;4.00;2.43;;;2.40;89.70;;;;;;5044738;28;20185;-73
2021/11/30 04:24:04;;;;;;;4.47;3.03;;;2.40;89.90;;;;;;5051430;28;20642;-73
2021/11/30 04:26:30;;;;;;;6.07;3.53;;;2.40;90.00;;;;;;5048606;28;20200;-73
2021/11/30 04:28:56;;;;;;;4.50;2.80;;;2.40;90.00;;;;;;5050184;28;20643;-74
2021/11/30 04:31:22;;;;;;;8.90;3.47;;;2.40;90.10;;;;;;5052720;28;20553;-73
2021/11/30 04:33:48;;;;;;;7.17;3.27;;;2.40;90.30;;;;;;5044125;28;20280;-72
2021/11/30 04:36:14;;;;;;;6.20;3.57;;;2.30;90.30;;;;;;5044996;28;20209;-73
2021/11/30 04:38:40;;;;;;;5.33;2.93;;;2.30;90.40;;;;;;5040244;28;20514;-73
2021/11/30 04:41:06;;;;;;;5.05;3.15;;;2.20;90.40;;;;;;5047592;28;20476;-72
2021/11/30 04:43:35;;;;;;;5.63;3.10;;;2.20;90.50;;;;;;5039994;28;20176;-73
2021/11/30 04:46:09;;;;;;;8.23;3.70;;;2.20;90.50;;;;;;5046014;28;20197;-74
2021/11/30 04:48:35;;;;;;;5.53;3.20;;;2.20;90.60;;;;;;5039219;28;20199;-73
2021/11/30 04:51:03;;;;;;;6.53;3.58;;;2.20;90.60;;;;;;5048411;28;20729;-74
2021/11/30 04:53:31;;;;;;;5.32;3.33;;;2.20;90.50;;;;;;5051944;28;20188;-73
2021/11/30 04:55:58;;;;;;;7.00;3.20;;;2.20;90.40;;;;;;5052311;28;20208;-74
2021/11/30 04:58:23;;;;;;;5.45;3.22;;;2.20;90.40;;;;;;5052700;28;20566;-73
2021/11/30 05:00:49;;;;;;;6.40;3.40;;;2.20;90.40;;;;;;5042533;28;20292;-74
2021/11/30 05:03:15;;;;;;;6.87;3.40;;;2.20;90.40;;;;;;5052582;28;20179;-74
2021/11/30 05:05:43;;;;;;;8.07;3.00;;;2.20;90.30;;;;;;5042265;28;20228;-73
2021/11/30 05:08:09;;;;;;;5.05;3.55;;;2.20;90.30;;;;;;5038391;28;20196;-73
2021/11/30 05:10:34;;;;;;;5.80;3.22;;;2.20;90.20;;;;;;5044696;28;20624;-73
2021/11/30 05:13:02;;;;;;;6.57;3.33;;;2.20;90.00;;;;;;5039992;28;20196;-74
2021/11/30 05:15:28;;;;;;;7.05;3.60;;;2.20;90.00;;;;;;5044776;28;20189;-73
2021/11/30 05:17:54;;;;;;;10.35;3.20;;;2.20;90.20;;;;;;5036768;28;20197;-73
2021/11/30 05:20:20;;;;;;;6.77;4.13;;;2.20;90.40;;;;;;5046151;28;20619;-76
2021/11/30 05:22:46;;;;;;;6.03;4.07;;;2.20;90.60;;;;;;5048908;28;20419;-76
2021/11/30 05:25:12;;;;;;;4.87;2.97;;;2.10;91.00;;;;;;5044552;28;20423;-76
2021/11/30 05:27:40;;;;;;;8.27;3.67;;;2.20;91.30;;;;;;5040828;28;20470;-76
2021/11/30 05:30:13;;;;;;;5.93;3.90;;;2.10;91.50;;;;;;5038628;28;20189;-75
2021/11/30 05:32:42;;;;;;;7.80;3.58;;;2.00;91.80;;;;;;5049677;28;20296;-75
2021/11/30 05:35:09;;;;;;;8.60;4.50;;;2.00;92.10;;;;;;5045975;28;20663;-75
2021/11/30 05:37:35;;;;;;;7.28;4.40;;;1.90;92.30;;;;;;5032287;28;20711;-75
2021/11/30 05:40:01;;;;;;;6.45;4.40;;;1.90;92.50;;;;;;5037314;28;20220;-75
2021/11/30 05:42:30;;;;;;;10.98;4.43;;;1.90;92.80;;;;;;5045100;28;20578;-76
2021/11/30 05:44:56;;;;;;;7.40;4.30;;;1.80;93.10;;;;;;5043871;28;20177;-76
2021/11/30 05:47:22;;;;;;;7.07;4.03;;;1.80;93.30;;;;;;5047413;28;20545;-76
2021/11/30 05:49:48;;;;;;;9.30;4.27;;;1.80;93.50;;;;;;5052664;28;20468;-76
2021/11/30 05:52:13;;;;;;;12.07;4.23;;;1.80;93.30;;;;;;5046784;28;20180;-76
2021/11/30 05:54:39;;;;;;;5.97;4.23;;;1.80;93.10;;;;;;5051101;28;21068;-76
2021/11/30 05:57:11;;;;;;;9.17;4.50;;;1.80;93.20;;;;;;5047149;28;20193;-75
2021/11/30 05:59:40;;;;;;;10.02;4.10;;;1.80;93.20;;;;;;5048837;28;20462;-76
2021/11/30 06:02:08;;;;;;;6.75;3.95;;;1.80;93.00;;;;;;5051193;28;20227;-76
2021/11/30 06:04:34;;;;;;;10.38;4.70;;;1.90;92.70;;;;;;5039682;28;20554;-77
2021/11/30 06:07:00;;;;;;;6.80;4.68;;;1.80;92.80;;;;;;5052631;28;20216;-77
2021/11/30 06:09:26;;;;;;;6.63;4.30;;;1.90;92.80;;;;;;5058287;28;20183;-74
2021/11/30 06:11:52;;;;;;;6.40;4.05;;;1.90;92.70;;;;;;5049045;28;20187;-74
2021/11/30 06:14:18;;;;;;;9.27;4.25;;;1.80;92.60;;;;;;5050314;28;20180;-75
2021/11/30 06:16:44;;;;;;;7.33;4.50;;;1.80;92.60;;;;;;5049852;28;20204;-74
2021/11/30 06:19:12;;;;;;;6.50;4.30;;;1.90;92.50;;;;;;5049455;28;20821;-74
2021/11/30 06:21:39;;;;;;;10.45;4.85;;;1.80;92.60;;;;;;5044068;28;20791;-75
2021/11/30 06:24:04;;;;;;;8.15;4.95;;;1.80;92.90;;;;;;5052984;28;20176;-74
2021/11/30 06:26:30;;;;;;;8.03;4.97;;;1.80;93.10;;;;;;5047961;28;20203;-73
2021/11/30 06:28:56;;;;;;;12.13;5.97;;;1.70;93.40;;;;;;5039101;28;20911;-74
2021/11/30 06:31:22;;;;;;;7.77;4.83;;;1.60;93.80;;;;;;5038511;28;20423;-74
2021/11/30 06:33:48;;;;;;;12.93;5.67;;;1.60;94.30;;;;;;5051180;28;20847;-73
2021/11/30 06:36:13;;;;;;;9.93;5.60;;;1.50;94.60;;;;;;5049240;28;20519;-73
2021/11/30 06:38:39;;;;;;;7.00;4.63;;;1.50;94.90;;;;;;5050688;28;20195;-74
2021/11/30 06:41:05;;;;;;;9.73;5.20;;;1.50;95.20;;;;;;5043110;28;20553;-74
2021/11/30 06:43:31;;;;;;;12.27;6.30;;;1.40;95.20;;;;;;5051145;28;20177;-74
2021/11/30 06:45:57;;;;;;;10.83;5.73;;;1.40;95.50;;;;;;5046783;28;20204;-74
2021/11/30 06:48:22;;;;;;;9.33;5.00;;;1.40;95.60;;;;;;5044197;28;20259;-74
2021/11/30 06:50:49;;;;;;;10.00;5.70;;;1.30;95.70;;;;;;5047923;28;20565;-73
2021/11/30 06:53:15;;;;;;;11.00;6.05;;;1.30;95.90;;;;;;5047791;28;20425;-73
2021/11/30 06:55:40;;;;;;;8.97;5.03;;;1.30;96.10;;;;;;5042701;28;20856;-74
2021/11/30 06:58:06;;;;;;;10.63;5.23;;;1.30;96.30;;;;;;5040746;28;20450;-74
2021/11/30 07:00:32;;;;;;;7.70;5.20;;;1.30;96.40;;;;;;5035166;28;20208;-73
2021/11/30 07:02:58;;;;;;;8.90;5.60;;;1.30;96.50;;;;;;5047361;28;20231;-74
2021/11/30 07:05:37;;;;;;;10.35;5.15;;;1.20;96.30;;;;;;5044966;28;20181;-73
2021/11/30 07:13:25;;;;;;;8.45;5.47;;;1.30;95.90;;;;;;5045060;28;20662;-72
2021/11/30 07:16:03;;;;;;;10.40;5.43;;;1.40;95.70;;;;;;5048356;28;20275;-72
2021/11/30 07:18:30;;;;;;;8.27;4.80;;;1.40;95.60;;;;;;5037040;28;20189;-74
2021/11/30 07:20:58;;;;;;;5.40;4.28;;;1.40;95.30;;;;;;5050230;28;20201;-73
2021/11/30 07:23:24;;;;;;;7.13;4.63;;;1.40;95.10;;;;;;5050064;28;20180;-74
2021/11/30 07:25:53;;;;;;;7.87;4.57;;;1.50;94.90;;;;;;5049843;28;20173;-73
2021/11/30 07:28:33;;;;;;;6.28;3.90;;;1.50;94.60;;;;;;5046648;28;20488;-72
2021/11/30 07:31:03;;;;;;;7.13;4.28;;;1.50;94.30;;;;;;5052472;28;20184;-74
2021/11/30 07:33:32;;;;;;;6.18;3.70;;;1.50;94.40;;;;;;5045233;28;20220;-73
2021/11/30 07:35:58;;;;;;;6.35;3.30;;;1.60;94.10;;;;;;5054006;28;20535;-73
2021/11/30 07:38:24;;;;;;;8.00;3.90;;;1.60;93.70;;;;;;5047324;28;20188;-73
2021/11/30 07:40:50;;;;;;;5.87;2.97;;;1.60;93.70;;;;;;5051054;28;20209;-73
2021/11/30 07:43:16;;;;;;;5.97;3.37;;;1.60;93.30;;;;;;5048195;28;20223;-74
2021/11/30 07:45:43;;;;;;;4.70;3.40;;;1.60;93.30;;;;;;5052989;28;20192;-73
2021/11/30 07:48:09;;;;;;;9.63;3.50;;;1.60;93.10;;;;;;5041225;28;20227;-73
2021/11/30 07:50:35;;;;;;;7.20;2.90;;;1.70;93.10;;;;;;5045225;28;20250;-73
2021/11/30 07:53:01;;;;;;;8.47;3.63;;;1.70;92.90;;;;;;5051907;28;20189;-73
2021/11/30 07:55:27;;;;;;;5.20;3.27;;;1.70;92.60;;;;;;5045473;28;20180;-73
2021/11/30 07:57:53;;;;;;;6.88;3.30;;;1.80;92.60;;;;;;5043984;28;20681;-72
2021/11/30 08:00:19;;;;;;;5.88;3.50;;;1.70;92.60;;;;;;5040202;28;20235;-73
2021/11/30 08:02:46;;;;;;;7.18;3.70;;;1.80;92.50;;;;;;5039891;28;20272;-73
2021/11/30 08:05:13;;;;;;;7.03;3.38;;;1.80;92.10;;;;;;5047269;28;20279;-73
2021/11/30 08:07:40;;;;;;;3.53;2.72;;;1.80;91.90;;;;;;5050011;28;20234;-73
2021/11/30 08:10:11;;;;;;;4.38;2.83;;;1.80;91.90;;;;;;5037538;28;20191;-73
2021/11/30 08:12:37;;;;;;;7.47;3.80;;;1.80;92.00;;;;;;5048433;28;20208;-74
2021/11/30 08:15:05;;;;;;;7.07;2.95;;;1.80;92.20;;;;;;5050048;28;20616;-74
2021/11/30 08:17:30;;;;;;;5.75;3.20;;;1.80;92.50;;;;;;5045660;28;20204;-73
2021/11/30 08:19:56;;;;;;;4.93;2.97;;;1.80;92.70;;;;;;5048438;28;20280;-73
2021/11/30 08:22:22;;;;;;;6.27;2.50;;;1.80;92.70;;;;;;5046157;28;20414;-73
2021/11/30 08:24:48;;;;;;;5.57;2.80;;;1.80;92.50;;;;;;5049432;28;20301;-73
2021/11/30 08:27:14;;;;;;;4.20;2.63;;;1.80;92.60;;;;;;5038275;28;20264;-74
2021/11/30 08:29:42;;;;;;;4.50;2.87;;;1.90;92.40;;;;;;5045095;28;20260;-73
2021/11/30 08:32:09;;;;;;;5.07;3.05;;;1.80;92.40;;;;;;5041943;28;20431;-74
2021/11/30 08:34:40;;;;;;;5.60;3.35;;;1.80;92.20;;;;;;5037022;28;20192;-73
2021/11/30 08:37:09;;;;;;;5.28;3.10;;;1.80;92.70;;;;;;5050755;28;20196;-74
2021/11/30 08:39:35;;;;;;;3.60;2.50;;;1.80;92.70;;;;;;5046375;28;20181;-73
2021/11/30 08:42:03;;;;;;;4.80;2.83;;;1.90;92.30;;;;;;5052873;28;20655;-73
2021/11/30 08:44:30;;;;;;;4.55;2.83;;;1.90;91.80;;;;;;5049158;28;20181;-73
2021/11/30 08:46:58;;;;;;;8.82;2.70;;;2.00;91.70;;;;;;5045417;28;20192;-73
2021/11/30 08:49:24;;;;;;;4.28;2.88;;;2.00;91.00;;;;;;5053213;28;20550;-73
2021/11/30 08:51:50;;;;;;;5.10;3.08;;;2.00;91.00;;;;;;5050752;28;20180;-74
2021/11/30 08:54:16;;;;;;;8.50;2.67;;;2.10;91.10;;;;;;5046300;28;20180;-75
2021/11/30 08:56:42;;;;;;;4.40;2.73;;;2.20;91.20;;;;;;5050418;28;20580;-73
2021/11/30 08:59:08;;;;;;;10.50;3.00;;;2.20;91.10;;;;;;5045518;28;20184;-74
2021/11/30 09:01:34;;;;;;;4.20;3.00;;;2.20;90.80;;;;;;5051268;28;20199;-74
2021/11/30 09:03:59;;;;;;;4.73;2.90;;;2.20;90.90;;;;;;5033094;28;20326;-74
2021/11/30 09:06:26;;;;;;;3.83;2.80;;;2.20;90.70;;;;;;5052842;28;20234;-74
2021/11/30 09:08:52;;;;;;;5.53;3.17;;;2.30;90.60;;;;;;5045580;28;20182;-74
2021/11/30 09:11:19;;;;;;;4.83;2.47;;;2.40;90.20;;;;;;5046578;28;20180;-74
2021/11/30 09:13:46;;;;;;;5.15;2.38;;;2.30;90.10;;;;;;5059407;28;20328;-74
2021/11/30 09:16:12;;;;;;;3.90;2.65;;;2.30;90.20;;;;;;5061487;28;20192;-73
2021/11/30 09:18:37;;;;;;;5.47;2.50;;;2.40;90.10;;;;;;5048034;28;20188;-74
2021/11/30 09:21:03;;;;;;;3.80;2.30;;;2.40;90.00;;;;;;5052550;28;20204;-74
2021/11/30 09:23:29;;;;;;;5.90;2.50;;;2.40;90.10;;;;;;5043671;28;20188;-75
2021/11/30 09:25:59;;;;;;;4.97;2.57;;;2.40;90.20;;;;;;5045252;28;20655;-74
2021/11/30 09:28:25;;;;;;;3.95;2.28;;;2.50;90.30;;;;;;5043998;28;20181;-74
2021/11/30 09:30:51;;;;;;;4.75;2.63;;;2.40;90.30;;;;;;5053050;28;20200;-74
2021/11/30 09:33:17;;;;;;;3.23;2.23;;;2.50;90.30;;;;;;5044248;28;20189;-74
2021/11/30 09:35:43;;;;;;;2.73;1.80;;;2.60;90.10;;;;;;5037314;28;20188;-74
2021/11/30 09:38:08;;;;;;;4.20;2.30;;;2.60;89.90;;;;;;5045938;28;20177;-74
2021/11/30 09:40:35;;;;;;;3.70;2.10;;;2.60;89.90;;;;;;5037626;28;20617;-74
2021/11/30 09:43:02;;;;;;;4.35;2.22;;;2.70;89.70;;;;;;5032349;28;20542;-75
2021/11/30 09:45:28;;;;;;;2.90;1.85;;;2.70;89.30;;;;;;5041145;28;20631;-74
2021/11/30 09:47:54;;;;;;;4.15;2.40;;;2.70;89.30;;;;;;5039387;28;20210;-74
2021/11/30 09:50:22;;;;;;;3.87;2.00;;;2.70;89.60;;;;;;5046334;28;20176;-74
2021/11/30 09:52:53;;;;;;;2.88;2.00;;;2.70;90.20;;;;;;5043603;28;20481;-75
2021/11/30 09:55:22;;;;;;;2.95;2.08;;;2.80;90.10;;;;;;5047726;28;20209;-74
2021/11/30 09:57:48;;;;;;;2.78;2.05;;;2.80;89.70;;;;;;5051268;28;20220;-73
2021/11/30 10:00:14;;;;;;;3.05;1.67;;;2.70;89.50;;;;;;5052193;28;20636;-75
2021/11/30 10:02:40;;;;;;;3.05;2.05;;;2.70;89.90;;;;;;5050758;28;20181;-74
2021/11/30 10:05:06;;;;;;;3.27;2.00;;;2.70;90.20;;;;;;5039833;28;20545;-74
2021/11/30 10:07:46;;;;;;;2.08;1.90;;;2.70;90.50;;;;;;5043677;28;20459;-74
2021/11/30 10:10:19;;;;;;;2.75;1.80;;;2.70;90.50;;;;;;5047145;28;20187;-74
2021/11/30 10:12:53;;;;;;;3.60;1.70;;;2.70;90.80;;;;;;5043749;28;20180;-74
2021/11/30 10:15:19;;;;;;;2.47;1.85;;;2.70;90.80;;;;;;5043977;28;20194;-74
2021/11/30 10:17:44;;;;;;;4.17;1.60;;;2.80;90.80;;;;;;5044772;28;20201;-75
2021/11/30 10:20:13;;;;;;;3.83;1.70;;;2.80;90.70;;;;;;5048547;28;20235;-74
2021/11/30 10:22:52;;;;;;;2.20;1.40;;;2.90;90.70;;;;;;5042823;28;20427;-75
2021/11/30 10:25:25;;;;;;;1.83;1.40;;;2.90;90.30;;;;;;5045152;28;20223;-74
2021/11/30 10:27:58;;;;;;;1.90;1.33;;;2.90;90.30;;;;;;5045234;28;20588;-74
2021/11/30 10:30:30;;;;;;;1.83;1.55;;;2.80;90.50;;;;;;5047024;28;20510;-74
2021/11/30 10:33:01;;;;;;;3.60;1.50;;;2.80;90.80;;;;;;5052559;28;20172;-73
2021/11/30 10:35:28;;;;;;;1.52;1.30;;;2.80;91.00;;;;;;5050355;28;20192;-74
2021/11/30 10:37:57;;;;;;;4.40;2.20;;;2.80;91.10;;;;;;5034129;28;20201;-74
2021/11/30 10:40:26;;;;;;;2.10;1.63;;;2.80;91.60;;;;;;5053712;28;20208;-75
2021/11/30 10:42:58;;;;;;;2.47;1.75;;;2.70;91.70;;;;;;5043951;28;20169;-74
2021/11/30 10:45:32;;;;;;;1.52;1.30;;;2.70;92.00;;;;;;5045893;28;20169;-74
2021/11/30 10:48:15;;;;;;;1.70;1.63;;;2.70;92.20;;;;;;5047545;28;20200;-74
2021/11/30 10:50:55;;;;;;;1.90;1.35;;;2.60;92.60;;;;;;5039812;28;20170;-74
2021/11/30 10:53:30;;;;;;;2.53;1.30;;;2.60;92.50;;;;;;5048083;28;20260;-75
2021/11/30 10:56:02;;;;;;;3.47;1.58;;;2.50;93.10;;;;;;5046853;28;20176;-75
2021/11/30 10:58:34;;;;;;;3.53;1.80;;;2.50;93.60;;;;;;5055919;28;20177;-74
2021/11/30 11:01:05;;;;;;;2.40;1.73;;;2.40;93.70;;;;;;5055322;28;20709;-74
2021/11/30 11:03:32;;;;;;;2.83;1.73;;;2.40;94.00;;;;;;5047251;28;20197;-74
2021/11/30 11:08:55;;;;;;;1.60;1.33;;;2.50;94.10;;;;;;5055051;28;20326;-76
2021/11/30 11:11:27;;;;;;;2.05;1.40;;;2.50;93.60;;;;;;5041889;28;20172;-74
2021/11/30 11:13:53;;;;;;;1.75;1.20;;;2.60;93.70;;;;;;5048926;28;20726;-75
2021/11/30 11:16:33;;;;;;;2.83;1.23;;;2.60;93.70;;;;;;5047295;28;20216;-75
2021/11/30 11:19:02;;;;;;;2.92;1.50;;;2.70;93.50;;;;;;5055209;28;20204;-73
2021/11/30 11:21:29;;;;;;;2.20;1.33;;;2.70;93.30;;;;;;5045382;28;20204;-75
2021/11/30 11:24:10;;;;;;;1.15;1.10;;;2.70;93.60;;;;;;5055218;28;20444;-73
2021/11/30 11:26:55;;;;;;;3.45;1.42;;;2.80;93.20;;;;;;5046065;28;20216;-74
2021/11/30 11:29:26;;;;;;;2.80;1.40;;;2.80;93.10;;;;;;5038635;28;20187;-75
2021/11/30 11:32:03;;;;;;;1.83;1.38;;;2.80;93.00;;;;;;5052161;28;20230;-75
2021/11/30 11:34:31;;;;;;;2.03;1.30;;;2.80;93.30;;;;;;5055446;28;20172;-75
2021/11/30 11:37:00;;;;;;;2.47;1.30;;;2.80;93.20;;;;;;5050832;28;20280;-75
2021/11/30 11:39:29;;;;;;;1.50;1.20;;;2.80;93.30;;;;;;5047473;28;20423;-74
2021/11/30 11:41:58;;;;;;;2.00;1.20;;;2.80;93.50;;;;;;5054367;28;20801;-73
2021/11/30 11:44:24;;;;;;;2.88;1.55;;;2.90;92.60;;;;;;5046068;28;20182;-74
2021/11/30 11:46:52;;;;;;;1.65;1.40;;;2.90;92.80;;;;;;5052012;28;20288;-74
2021/11/30 11:49:21;;;;;;;2.90;1.20;;;3.00;93.00;;;;;;5046649;28;20190;-74
2021/11/30 11:51:49;;;;;;;2.17;1.45;;;3.00;92.90;;;;;;5043896;28;20188;-75
2021/11/30 11:54:28;;;;;;;1.30;1.10;;;3.00;93.00;;;;;;5039410;28;20236;-76
2021/11/30 11:57:03;;;;;;;1.35;1.10;;;3.00;92.80;;;;;;5040471;28;20211;-75
2021/11/30 11:59:44;;;;;;;5.22;1.40;;;3.00;92.70;;;;;;5053447;28;20184;-75
2021/11/30 12:02:20;;;;;;;1.50;1.33;;;3.10;92.80;;;;;;5050402;28;20180;-74
2021/11/30 12:04:56;;;;;;;2.28;1.70;;;3.10;92.90;;;;;;5050856;28;20176;-75
2021/11/30 12:07:25;;;;;;;1.73;1.40;;;3.10;92.90;;;;;;5040024;28;20631;-76
2021/11/30 12:10:14;;;;;;;1.90;1.43;;;3.10;93.00;;;;;;5046948;28;20848;-75
2021/11/30 12:12:40;;;;;;;4.63;2.13;;;3.10;93.20;;;;;;5048428;28;21088;-74
2021/11/30 12:15:06;;;;;;;2.80;1.67;;;3.10;93.40;;;;;;5045446;28;20433;-75
2021/11/30 12:17:32;;;;;;;1.40;1.30;;;3.10;93.30;;;;;;5049839;28;20208;-75
2021/11/30 12:19:57;;;;;;;1.73;1.50;;;3.10;93.50;;;;;;5052143;28;20784;-74
2021/11/30 12:22:42;;;;;;;2.50;1.50;;;3.10;93.50;;;;;;5052026;28;20234;-74
2021/11/30 12:25:29;;;;;;;3.50;1.50;;;3.10;93.60;;;;;;5049491;28;20212;-74
2021/11/30 12:28:05;;;;;;;2.77;1.50;;;3.10;93.80;;;;;;5041026;28;21023;-75
2021/11/30 12:30:50;;;;;;;2.27;1.50;;;3.10;93.70;;;;;;5051161;28;20407;-75
2021/11/30 12:33:23;;;;;;;2.43;1.33;;;3.10;93.90;;;;;;5052467;28;20411;-75
2021/11/30 12:36:12;;;;;;;4.00;1.55;;;3.00;94.10;;;;;;5040896;28;20929;-75
2021/11/30 12:39:02;;;;;;;7.50;1.50;;;3.00;94.40;;;;;;5040693;28;20196;-74
2021/11/30 12:41:29;;;;;;;4.00;1.67;;;3.00;94.50;;;;;;5045363;28;20197;-74
2021/11/30 12:44:23;;;;;;;1.98;1.40;;;3.00;94.90;;;;;;5048303;28;20174;-75
2021/11/30 12:46:55;;;;;;;1.90;1.45;;;3.00;95.10;;;;;;5042340;28;20201;-75
2021/11/30 12:49:24;;;;;;;4.25;1.55;;;3.00;95.40;;;;;;5036683;28;20185;-74
2021/11/30 12:52:22;;;;;;;3.83;1.60;;;2.90;95.60;;;;;;5048100;28;20666;-74
2021/11/30 12:55:14;;;;;;;2.53;1.40;;;2.90;95.80;;;;;;5048802;28;20206;-75
2021/11/30 12:57:44;;;;;;;1.60;1.40;;;2.90;95.90;;;;;;5051260;28;20797;-74
2021/11/30 13:00:26;;;;;;;3.75;1.60;;;2.90;95.90;;;;;;5045965;28;20201;-75
2021/11/30 13:02:54;;;;;;;1.70;1.35;;;2.90;96.00;;;;;;5043656;28;20238;-75
2021/11/30 13:05:27;;;;;;;3.53;1.40;;;2.90;96.30;;;;;;5051580;28;20184;-74
2021/11/30 13:07:54;;;;;;;1.35;1.23;;;2.90;96.30;;;;;;5042337;28;20213;-73
2021/11/30 13:10:23;;;;;;;1.47;1.30;;;3.00;96.00;;;;;;5041763;28;20188;-74
2021/11/30 13:12:50;;;;;;;2.20;1.10;;;2.90;96.20;;;;;;5046037;28;20515;-75
2021/11/30 13:15:18;;;;;;;5.10;1.27;;;2.90;96.30;;;;;;5040192;28;20185;-73
2021/11/30 13:17:44;;;;;;;1.40;1.27;;;2.90;96.50;;;;;;5036302;28;20204;-74